createdAt,value
2022-08-25T00:00:17.007Z,13.82
2022-08-25T00:02:49.643Z,11.75
2022-08-25T00:05:29.494Z,12.20
2022-08-25T00:08:01.306Z,11.40
2022-08-25T00:10:30.301Z,15.63
2022-08-25T00:12:59.151Z,11.15
2022-08-25T00:15:28.709Z,7.80
2022-08-25T00:18:00.143Z,6.38
2022-08-25T00:20:30.745Z,9.30
2022-08-25T00:22:59.482Z,11.05
2022-08-25T00:25:37.005Z,9.40
2022-08-25T00:28:08.341Z,17.00
2022-08-25T00:30:37.316Z,12.80
2022-08-25T00:33:09.788Z,11.70
2022-08-25T00:35:40.433Z,7.38
2022-08-25T00:38:09.172Z,11.75
2022-08-25T00:40:39.627Z,9.32
2022-08-25T00:43:09.705Z,9.10
2022-08-25T00:45:38.668Z,5.68
2022-08-25T00:48:09.440Z,11.25
2022-08-25T00:50:39.535Z,8.98
2022-08-25T00:53:10.011Z,9.65
2022-08-25T00:55:42.574Z,12.27
2022-08-25T00:58:17.593Z,7.90
2022-08-25T01:00:49.693Z,9.18
2022-08-25T01:03:25.252Z,12.02
2022-08-25T01:08:33.956Z,8.15
2022-08-25T01:11:06.031Z,9.05
2022-08-25T01:16:05.760Z,10.52
2022-08-25T01:19:03.935Z,7.97
2022-08-25T01:21:41.088Z,6.38
2022-08-25T01:24:12.852Z,7.97
2022-08-25T01:26:41.766Z,9.70
2022-08-25T01:29:25.664Z,7.57
2022-08-25T01:31:58.125Z,9.85
2022-08-25T01:34:29.578Z,6.25
2022-08-25T01:37:02.078Z,5.05
2022-08-25T01:39:33.472Z,10.60
2022-08-25T01:42:14.701Z,9.75
2022-08-25T01:44:45.942Z,12.50
2022-08-25T01:47:16.430Z,11.13
2022-08-25T01:50:02.290Z,8.43
2022-08-25T01:52:36.132Z,8.23
2022-08-25T01:55:06.804Z,9.32
2022-08-25T01:57:35.902Z,7.27
2022-08-25T02:00:07.349Z,8.00
2022-08-25T02:02:42.653Z,7.97
2022-08-25T02:05:14.234Z,9.02
2022-08-25T02:07:45.979Z,5.93
2022-08-25T02:10:15.478Z,12.27
2022-08-25T02:12:45.316Z,9.65
2022-08-25T02:15:14.858Z,9.77
2022-08-25T02:17:44.309Z,6.80
2022-08-25T02:20:13.309Z,8.30
2022-08-25T02:22:43.431Z,9.25
2022-08-25T02:25:21.676Z,7.00
2022-08-25T02:27:50.407Z,6.63
2022-08-25T02:30:19.768Z,9.93
2022-08-25T02:32:50.006Z,9.93
2022-08-25T02:35:19.468Z,10.07
2022-08-25T02:37:48.326Z,7.15
2022-08-25T02:40:17.795Z,11.45
2022-08-25T02:42:49.039Z,14.20
2022-08-25T02:45:19.089Z,10.63
2022-08-25T02:47:47.956Z,5.63
2022-08-25T02:50:17.658Z,7.70
2022-08-25T02:52:47.104Z,6.97
2022-08-25T02:55:15.910Z,17.35
2022-08-25T02:57:45.032Z,11.27
2022-08-25T03:00:17.640Z,9.30
2022-08-25T03:02:48.024Z,8.63
2022-08-25T03:05:17.403Z,7.97
2022-08-25T03:07:47.276Z,8.43
2022-08-25T03:10:19.101Z,12.30
2022-08-25T03:12:49.770Z,9.35
2022-08-25T03:15:20.330Z,17.38
2022-08-25T03:17:50.793Z,11.48
2022-08-25T03:20:21.050Z,8.45
2022-08-25T03:22:50.361Z,12.77
2022-08-25T03:25:36.634Z,10.30
2022-08-25T03:28:06.377Z,5.63
2022-08-25T03:30:37.397Z,7.63
2022-08-25T03:33:06.619Z,7.18
2022-08-25T03:35:35.491Z,10.57
2022-08-25T03:38:07.633Z,7.55
2022-08-25T03:40:37.317Z,7.53
2022-08-25T03:43:07.276Z,9.85
2022-08-25T03:45:42.401Z,12.68
2022-08-25T03:48:11.877Z,11.02
2022-08-25T03:50:50.650Z,9.38
2022-08-25T03:53:22.033Z,8.68
2022-08-25T03:55:50.664Z,11.77
2022-08-25T03:58:19.582Z,6.15
2022-08-25T04:00:50.205Z,8.57
2022-08-25T04:03:19.501Z,8.55
2022-08-25T04:05:50.258Z,11.27
2022-08-25T04:08:19.346Z,7.25
2022-08-25T04:10:48.901Z,17.52
2022-08-25T04:13:18.566Z,8.27
2022-08-25T04:15:47.575Z,9.63
2022-08-25T04:18:18.816Z,8.10
2022-08-25T04:20:48.029Z,10.73
2022-08-25T04:23:17.431Z,5.50
2022-08-25T04:25:46.553Z,7.72
2022-08-25T04:28:15.800Z,4.72
2022-08-25T04:30:47.174Z,4.35
2022-08-25T04:33:19.854Z,10.82
2022-08-25T04:35:50.270Z,6.93
2022-08-25T04:38:19.441Z,4.55
2022-08-25T04:40:56.713Z,6.38
2022-08-25T04:43:26.459Z,6.63
2022-08-25T04:45:56.075Z,7.22
2022-08-25T04:48:27.453Z,5.03
2022-08-25T04:50:57.716Z,4.03
2022-08-25T04:53:27.024Z,4.13
2022-08-25T04:55:59.537Z,8.80
2022-08-25T04:58:30.828Z,4.22
2022-08-25T05:01:03.851Z,5.47
2022-08-25T05:03:35.168Z,3.45
2022-08-25T05:06:05.031Z,4.35
2022-08-25T05:08:34.715Z,7.18
2022-08-25T05:11:08.006Z,4.18
2022-08-25T05:13:37.438Z,5.47
2022-08-25T05:16:09.926Z,6.97
2022-08-25T05:18:42.083Z,9.20
2022-08-25T05:21:13.025Z,4.80
2022-08-25T05:23:42.911Z,4.55
2022-08-25T05:26:19.583Z,5.10
2022-08-25T05:28:50.747Z,5.57
2022-08-25T05:31:20.819Z,6.53
2022-08-25T05:33:52.586Z,5.97
2022-08-25T05:36:24.575Z,7.60
2022-08-25T05:38:53.844Z,4.95
2022-08-25T05:41:27.695Z,4.45
2022-08-25T05:43:57.882Z,3.22
2022-08-25T05:46:27.957Z,6.97
2022-08-25T05:49:02.531Z,7.13
2022-08-25T05:51:31.888Z,5.17
2022-08-25T05:54:01.151Z,9.48
2022-08-25T05:56:30.511Z,11.80
2022-08-25T05:58:59.409Z,8.43
2022-08-25T06:01:48.133Z,11.95
2022-08-25T06:04:20.907Z,15.57
2022-08-25T06:06:53.719Z,13.80
2022-08-25T06:09:23.267Z,13.23
2022-08-25T06:11:54.940Z,12.43
2022-08-25T06:14:25.285Z,11.50
2022-08-25T06:16:54.737Z,13.45
2022-08-25T06:19:25.486Z,14.95
2022-08-25T06:21:59.333Z,15.90
2022-08-25T06:24:29.621Z,15.27
2022-08-25T06:26:59.586Z,11.25
2022-08-25T06:29:28.612Z,16.13
2022-08-25T06:31:58.374Z,23.02
2022-08-25T06:34:29.135Z,13.52
2022-08-25T06:36:58.059Z,12.93
2022-08-25T06:39:27.125Z,14.25
2022-08-25T06:41:57.585Z,15.05
2022-08-25T06:44:29.024Z,20.02
2022-08-25T06:46:58.601Z,11.38
2022-08-25T06:49:31.813Z,21.02
2022-08-25T06:52:05.210Z,12.00
2022-08-25T06:54:34.557Z,17.85
2022-08-25T06:57:04.011Z,15.23
2022-08-25T06:59:36.332Z,18.55
2022-08-25T07:02:10.925Z,18.23
2022-08-25T07:04:41.708Z,17.10
2022-08-25T07:07:10.575Z,18.08
2022-08-25T07:09:39.736Z,16.90
2022-08-25T07:12:10.021Z,14.40
2022-08-25T07:14:39.438Z,17.00
2022-08-25T07:17:10.452Z,18.05
2022-08-25T07:19:44.522Z,17.00
2022-08-25T07:22:14.775Z,14.18
2022-08-25T07:24:44.000Z,17.38
2022-08-25T07:27:13.091Z,15.98
2022-08-25T07:29:42.682Z,16.05
2022-08-25T07:32:12.159Z,17.75
2022-08-25T07:34:58.250Z,15.73
2022-08-25T07:37:47.917Z,15.32
2022-08-25T07:40:19.459Z,16.63
2022-08-25T07:42:49.742Z,16.85
2022-08-25T07:48:11.083Z,13.38
2022-08-25T07:50:45.931Z,14.90
2022-08-25T07:53:17.750Z,14.82
2022-08-25T07:55:47.393Z,14.43
2022-08-25T07:58:16.750Z,13.20
2022-08-25T08:00:50.761Z,15.98
2022-08-25T08:03:35.448Z,14.63
2022-08-25T08:06:11.912Z,12.20
2022-08-25T08:08:44.963Z,16.88
2022-08-25T08:11:17.858Z,17.65
2022-08-25T08:13:48.817Z,20.38
2022-08-25T08:16:20.940Z,9.98
2022-08-25T08:18:50.947Z,15.20
2022-08-25T08:21:23.220Z,18.65
2022-08-25T08:23:58.112Z,12.98
2022-08-25T08:26:48.303Z,12.50
2022-08-25T08:29:20.373Z,12.48
2022-08-25T08:31:54.890Z,10.80
2022-08-25T08:34:25.210Z,17.20
2022-08-25T08:36:58.467Z,18.13
2022-08-25T08:39:29.213Z,16.55
2022-08-25T08:42:22.397Z,18.63
2022-08-25T08:45:05.312Z,10.70
2022-08-25T08:47:53.126Z,20.17
2022-08-25T08:50:33.120Z,16.80
2022-08-25T08:53:10.736Z,12.45
2022-08-25T08:55:44.380Z,12.98
2022-08-25T08:58:26.308Z,16.38
2022-08-25T09:00:59.070Z,11.05
2022-08-25T09:03:34.969Z,12.18
2022-08-25T09:06:09.084Z,14.52
2022-08-25T09:08:45.241Z,14.07
2022-08-25T09:11:24.438Z,18.58
2022-08-25T09:14:11.366Z,15.40
2022-08-25T09:16:56.398Z,17.92
2022-08-25T09:19:41.985Z,13.20
2022-08-25T09:22:35.453Z,10.88
2022-08-25T09:25:18.738Z,9.85
2022-08-25T09:28:04.749Z,16.95
2022-08-25T09:30:42.560Z,10.30
2022-08-25T09:33:21.111Z,12.75
2022-08-25T09:35:52.053Z,10.48
2022-08-25T09:38:23.291Z,11.15
2022-08-25T09:40:57.238Z,12.00
2022-08-25T09:43:34.060Z,12.00
2022-08-25T09:46:12.677Z,19.45
2022-08-25T09:48:48.357Z,12.70
2022-08-25T09:51:28.535Z,16.15
2022-08-25T09:54:10.483Z,16.98
2022-08-25T09:56:50.930Z,12.53
2022-08-25T09:59:34.276Z,10.55
2022-08-25T10:02:23.902Z,12.77
2022-08-25T10:04:54.130Z,9.93
2022-08-25T10:07:27.926Z,7.88
2022-08-25T10:09:59.013Z,11.65
2022-08-25T10:12:36.141Z,8.05
2022-08-25T10:15:29.120Z,9.27
2022-08-25T10:18:21.651Z,11.90
2022-08-25T10:21:07.775Z,7.82
2022-08-25T10:23:42.194Z,10.50
2022-08-25T10:26:17.393Z,10.10
2022-08-25T10:29:06.993Z,10.75
2022-08-25T10:31:41.382Z,11.68
2022-08-25T10:34:26.959Z,8.60
2022-08-25T10:37:11.452Z,6.75
2022-08-25T10:39:45.092Z,8.05
2022-08-25T10:42:34.673Z,12.00
2022-08-25T10:45:40.823Z,10.75
2022-08-25T10:48:44.799Z,8.48
2022-08-25T10:51:31.928Z,9.73
2022-08-25T10:54:09.298Z,7.20
2022-08-25T10:56:42.827Z,11.27
2022-08-25T10:59:28.652Z,6.70
2022-08-25T11:02:13.423Z,7.35
2022-08-25T11:04:50.438Z,8.98
2022-08-25T11:07:24.515Z,10.70
2022-08-25T11:09:58.965Z,9.90
2022-08-25T11:12:33.363Z,9.32
2022-08-25T11:15:05.408Z,7.03
2022-08-25T11:17:50.105Z,8.82
2022-08-25T11:20:27.375Z,9.60
2022-08-25T11:23:11.528Z,9.65
2022-08-25T11:25:44.534Z,8.15
2022-08-25T11:28:18.050Z,9.15
2022-08-25T11:30:57.689Z,5.43
2022-08-25T11:33:31.251Z,8.43
2022-08-25T11:36:04.998Z,11.05
2022-08-25T11:38:47.828Z,9.50
2022-08-25T11:41:28.518Z,12.13
2022-08-25T11:44:13.977Z,13.63
2022-08-25T11:46:55.081Z,12.48
2022-08-25T11:49:46.749Z,8.98
2022-08-25T11:52:49.369Z,8.52
2022-08-25T11:55:23.540Z,13.00
2022-08-25T11:57:54.588Z,8.95
2022-08-25T12:00:42.350Z,7.15
2022-08-25T12:03:54.426Z,5.75
2022-08-25T12:06:29.810Z,7.60
2022-08-25T12:09:22.294Z,7.85
2022-08-25T12:11:55.173Z,7.70
2022-08-25T12:14:48.353Z,7.93
2022-08-25T12:17:41.023Z,10.13
2022-08-25T12:20:09.990Z,8.05
2022-08-25T12:22:51.699Z,4.93
2022-08-25T12:25:43.664Z,10.20
2022-08-25T12:28:37.296Z,5.32
2022-08-25T12:31:21.114Z,6.30
2022-08-25T12:34:02.533Z,8.77
2022-08-25T12:36:33.545Z,9.30
2022-08-25T12:39:24.603Z,5.97
2022-08-25T12:41:57.668Z,6.20
2022-08-25T12:44:40.736Z,5.50
2022-08-25T12:47:25.956Z,4.35
2022-08-25T12:49:56.448Z,4.97
2022-08-25T12:52:28.262Z,8.27
2022-08-25T12:55:03.237Z,7.10
2022-08-25T12:57:43.646Z,10.10
2022-08-25T13:00:18.393Z,7.38
2022-08-25T13:03:13.167Z,11.88
2022-08-25T13:06:01.220Z,5.88
2022-08-25T13:09:08.520Z,9.07
2022-08-25T13:11:43.735Z,7.05
2022-08-25T13:14:20.476Z,7.57
2022-08-25T13:16:57.974Z,4.15
2022-08-25T13:19:34.604Z,6.10
2022-08-25T13:22:16.460Z,13.68
2022-08-25T13:24:50.740Z,8.77
2022-08-25T13:27:28.484Z,6.95
2022-08-25T13:30:04.027Z,9.93
2022-08-25T13:32:35.889Z,10.88
2022-08-25T13:35:20.182Z,7.13
2022-08-25T13:37:48.764Z,7.47
2022-08-25T13:40:24.801Z,5.95
2022-08-25T13:43:02.758Z,6.15
2022-08-25T13:45:34.780Z,9.48
2022-08-25T13:48:20.958Z,10.18
2022-08-25T13:50:53.165Z,3.67
2022-08-25T13:53:24.862Z,8.23
2022-08-25T13:55:57.315Z,7.53
2022-08-25T13:58:38.519Z,5.15
2022-08-25T14:01:22.707Z,6.25
2022-08-25T14:04:32.275Z,4.75
2022-08-25T14:07:10.897Z,13.07
2022-08-25T14:09:43.069Z,5.80
2022-08-25T14:12:33.427Z,7.07
2022-08-25T14:15:08.533Z,10.40
2022-08-25T14:17:40.989Z,8.88
2022-08-25T14:20:25.846Z,9.25
2022-08-25T14:22:58.071Z,5.65
2022-08-25T14:25:31.450Z,9.57
2022-08-25T14:28:07.394Z,6.80
2022-08-25T14:30:43.541Z,6.35
2022-08-25T14:33:18.300Z,8.80
2022-08-25T14:35:53.644Z,7.88
2022-08-25T14:38:24.274Z,6.53
2022-08-25T14:40:53.823Z,6.50
2022-08-25T14:43:24.022Z,9.48
2022-08-25T14:46:04.619Z,11.68
2022-08-25T14:48:40.522Z,12.70
2022-08-25T14:51:13.369Z,6.90
2022-08-25T14:53:43.438Z,5.30
2022-08-25T14:56:15.148Z,4.40
2022-08-25T14:58:48.328Z,10.07
2022-08-25T15:01:28.359Z,3.33
2022-08-25T15:04:04.875Z,9.65
2022-08-25T15:06:35.757Z,5.75
2022-08-25T15:09:08.545Z,5.25
2022-08-25T15:11:38.723Z,4.70
2022-08-25T15:14:12.104Z,5.28
2022-08-25T15:16:47.695Z,6.72
2022-08-25T15:19:20.637Z,12.63
2022-08-25T15:24:20.462Z,12.55
2022-08-25T15:29:28.456Z,8.60
2022-08-25T15:32:00.272Z,6.45
2022-08-25T15:34:29.725Z,7.35
2022-08-25T15:37:01.668Z,5.07
2022-08-25T15:39:32.183Z,10.07
2022-08-25T15:42:01.400Z,6.78
2022-08-25T15:44:31.591Z,3.30
2022-08-25T15:47:01.825Z,6.90
2022-08-25T15:49:31.542Z,6.43
2022-08-25T15:52:01.025Z,6.85
2022-08-25T15:54:30.595Z,10.30
2022-08-25T15:56:59.750Z,6.60
2022-08-25T15:59:30.922Z,7.53
2022-08-25T16:04:33.179Z,10.25
2022-08-25T16:07:02.838Z,5.57
2022-08-25T16:09:35.842Z,3.78
2022-08-25T16:12:06.004Z,3.90
2022-08-25T16:14:38.959Z,3.63
2022-08-25T16:17:09.518Z,6.15
2022-08-25T16:19:38.368Z,4.20
2022-08-25T16:22:11.164Z,6.57
2022-08-25T16:24:42.109Z,6.65
2022-08-25T16:27:13.776Z,6.80
2022-08-25T16:29:45.729Z,8.10
2022-08-25T16:32:16.693Z,4.07
2022-08-25T16:34:45.522Z,7.95
2022-08-25T16:37:16.853Z,7.85
2022-08-25T16:39:46.436Z,10.90
2022-08-25T16:42:17.369Z,6.03
2022-08-25T16:44:47.292Z,5.05
2022-08-25T16:47:20.419Z,5.53
2022-08-25T16:49:53.958Z,6.68
2022-08-25T16:52:40.724Z,12.75
2022-08-25T16:55:16.822Z,4.57
2022-08-25T16:57:47.867Z,4.70
2022-08-25T17:00:20.222Z,6.68
2022-08-25T17:02:51.653Z,4.97
2022-08-25T17:05:20.541Z,5.63
2022-08-25T17:08:09.721Z,7.10
2022-08-25T17:10:41.127Z,7.45
2022-08-25T17:13:14.164Z,8.90
2022-08-25T17:15:46.188Z,6.50
2022-08-25T17:18:16.745Z,6.82
2022-08-25T17:23:16.356Z,12.27
2022-08-25T17:25:48.378Z,9.50
2022-08-25T17:28:17.390Z,9.50
2022-08-25T17:30:46.613Z,11.52
2022-08-25T17:33:17.012Z,17.38
2022-08-25T17:35:54.285Z,10.80
2022-08-25T17:38:27.145Z,9.30
2022-08-25T17:41:01.026Z,14.48
2022-08-25T17:43:31.657Z,12.07
2022-08-25T17:46:00.901Z,9.10
2022-08-25T17:48:38.213Z,11.55
2022-08-25T17:51:13.006Z,9.95
2022-08-25T17:53:45.456Z,8.43
2022-08-25T17:56:19.066Z,6.20
2022-08-25T17:58:48.541Z,9.75
2022-08-25T18:01:20.209Z,8.77
2022-08-25T18:03:53.128Z,8.65
2022-08-25T18:06:22.444Z,8.00
2022-08-25T18:08:56.317Z,11.50
2022-08-25T18:11:28.061Z,8.85
2022-08-25T18:13:57.325Z,10.13
2022-08-25T18:16:26.837Z,11.05
2022-08-25T18:18:57.276Z,8.57
2022-08-25T18:21:27.138Z,11.15
2022-08-25T18:23:59.438Z,9.50
2022-08-25T18:26:28.343Z,13.85
2022-08-25T18:28:57.097Z,13.32
2022-08-25T18:31:28.799Z,11.60
2022-08-25T18:33:59.343Z,6.90
2022-08-25T18:36:27.985Z,9.75
2022-08-25T18:39:14.711Z,8.52
2022-08-25T18:41:45.564Z,11.10
2022-08-25T18:44:15.577Z,10.35
2022-08-25T18:46:45.581Z,8.98
2022-08-25T18:49:17.646Z,8.30
2022-08-25T18:51:49.380Z,5.90
2022-08-25T18:54:23.050Z,7.90
2022-08-25T18:56:53.928Z,11.70
2022-08-25T18:59:23.818Z,8.43
2022-08-25T19:01:54.278Z,8.55
2022-08-25T19:04:28.353Z,6.65
2022-08-25T19:07:01.433Z,9.75
2022-08-25T19:09:30.585Z,7.05
2022-08-25T19:11:59.926Z,6.78
2022-08-25T19:14:29.613Z,7.28
2022-08-25T19:17:02.903Z,8.40
2022-08-25T19:19:34.928Z,8.15
2022-08-25T19:22:06.689Z,7.38
2022-08-25T19:24:37.614Z,6.00
2022-08-25T19:27:12.977Z,9.65
2022-08-25T19:29:42.427Z,5.97
2022-08-25T19:32:12.658Z,6.35
2022-08-25T19:34:44.633Z,7.72
2022-08-25T19:37:19.372Z,7.90
2022-08-25T19:39:53.222Z,6.80
2022-08-25T19:42:37.801Z,5.47
2022-08-25T19:45:09.952Z,10.80
2022-08-25T19:47:38.979Z,8.73
2022-08-25T19:50:11.401Z,12.88
2022-08-25T19:52:45.834Z,5.50
2022-08-25T19:55:20.071Z,11.85
2022-08-25T19:57:49.283Z,7.93
2022-08-25T20:00:22.759Z,6.22
2022-08-25T20:02:51.801Z,6.38
2022-08-25T20:05:23.715Z,9.05
2022-08-25T20:07:53.481Z,9.60
2022-08-25T20:10:23.710Z,7.25
2022-08-25T20:12:53.384Z,6.55
2022-08-25T20:15:22.600Z,10.93
2022-08-25T20:17:56.634Z,9.27
2022-08-25T20:20:32.281Z,5.10
2022-08-25T20:23:15.804Z,9.35
2022-08-25T20:25:46.205Z,6.05
2022-08-25T20:28:18.662Z,4.93
2022-08-25T20:30:48.125Z,5.00
2022-08-25T20:33:22.595Z,8.93
2022-08-25T20:35:53.775Z,9.63
2022-08-25T20:38:24.752Z,5.57
2022-08-25T20:40:54.630Z,7.05
2022-08-25T20:43:23.392Z,9.30
2022-08-25T20:46:00.643Z,7.20
2022-08-25T20:48:29.947Z,6.35
2022-08-25T20:51:00.483Z,6.72
2022-08-25T20:53:29.098Z,6.80
2022-08-25T20:55:59.136Z,6.82
2022-08-25T20:58:28.962Z,8.52
2022-08-25T21:00:57.817Z,9.40
2022-08-25T21:03:28.008Z,5.50
2022-08-25T21:05:57.164Z,7.80
2022-08-25T21:08:28.113Z,8.63
2022-08-25T21:10:56.902Z,10.75
2022-08-25T21:13:26.310Z,5.03
2022-08-25T21:15:55.431Z,11.05
2022-08-25T21:18:25.934Z,7.53
2022-08-25T21:20:58.467Z,8.73
2022-08-25T21:23:29.167Z,6.13
2022-08-25T21:25:58.287Z,7.97
2022-08-25T21:28:27.767Z,6.75
2022-08-25T21:30:59.454Z,6.57
2022-08-25T21:33:28.477Z,7.60
2022-08-25T21:35:57.508Z,5.97
2022-08-25T21:38:29.201Z,6.78
2022-08-25T21:40:59.029Z,8.25
2022-08-25T21:43:28.069Z,6.72
2022-08-25T21:45:58.026Z,5.75
2022-08-25T21:48:27.672Z,6.43
2022-08-25T21:51:05.451Z,7.40
2022-08-25T21:53:37.170Z,6.03
2022-08-25T21:56:07.914Z,5.22
2022-08-25T21:58:38.478Z,7.03
2022-08-25T22:01:21.513Z,5.95
2022-08-25T22:03:51.524Z,8.70
2022-08-25T22:06:22.995Z,10.50
2022-08-25T22:08:54.865Z,7.25
2022-08-25T22:11:24.238Z,9.32
2022-08-25T22:13:57.373Z,7.07
2022-08-25T22:16:29.829Z,6.82
2022-08-25T22:18:59.653Z,6.80
2022-08-25T22:21:30.301Z,8.05
2022-08-25T22:24:04.486Z,7.30
2022-08-25T22:26:34.712Z,7.90
2022-08-25T22:29:04.199Z,10.38
2022-08-25T22:31:34.062Z,9.38
2022-08-25T22:34:03.656Z,5.97
2022-08-25T22:36:37.115Z,6.43
2022-08-25T22:39:09.288Z,6.18
2022-08-25T22:41:38.158Z,6.75
2022-08-25T22:44:13.900Z,5.85
2022-08-25T22:46:44.080Z,9.77
2022-08-25T22:49:14.343Z,3.40
2022-08-25T22:51:43.459Z,8.45
2022-08-25T22:54:18.443Z,8.57
2022-08-25T22:56:49.845Z,8.60
2022-08-25T22:59:20.144Z,5.57
2022-08-25T23:01:52.623Z,7.07
2022-08-25T23:04:23.701Z,6.57
2022-08-25T23:06:55.372Z,6.43
2022-08-25T23:09:32.961Z,7.97
2022-08-25T23:12:02.495Z,11.57
2022-08-25T23:14:35.831Z,7.03
2022-08-25T23:17:07.669Z,12.57
2022-08-25T23:19:37.312Z,7.78
2022-08-25T23:22:11.174Z,6.93
2022-08-25T23:24:43.546Z,9.27
2022-08-25T23:27:14.837Z,15.00
2022-08-25T23:29:47.447Z,9.95
2022-08-25T23:32:18.453Z,7.38
2022-08-25T23:34:47.513Z,10.43
2022-08-25T23:37:18.770Z,9.55
2022-08-25T23:39:49.974Z,10.50
2022-08-25T23:42:20.690Z,8.05
2022-08-25T23:44:50.599Z,9.52
2022-08-25T23:47:19.692Z,7.70
2022-08-25T23:49:49.427Z,6.30
2022-08-25T23:52:18.715Z,6.55
2022-08-25T23:54:49.401Z,10.07
2022-08-25T23:57:18.969Z,9.10
2022-08-25T23:59:48.783Z,10.13
